createdAt,value
2019-05-07T00:01:43.045Z,3.98
2019-05-07T00:04:12.928Z,4.20
2019-05-07T00:06:43.313Z,4.40
2019-05-07T00:09:12.730Z,4.70
2019-05-07T00:11:42.620Z,4.50
2019-05-07T00:14:12.580Z,4.45
2019-05-07T00:16:42.199Z,5.00
2019-05-07T00:19:12.712Z,4.35
2019-05-07T00:21:42.316Z,4.10
2019-05-07T00:24:12.958Z,4.30
2019-05-07T00:26:42.797Z,4.42
2019-05-07T00:29:12.796Z,4.12
2019-05-07T00:31:42.005Z,4.08
2019-05-07T00:34:12.545Z,4.37
2019-05-07T00:36:44.401Z,3.90
2019-05-07T00:39:27.146Z,4.17
2019-05-07T00:41:57.033Z,4.35
2019-05-07T00:44:25.633Z,4.60
2019-05-07T00:46:53.847Z,4.20
2019-05-07T00:49:24.171Z,4.65
2019-05-07T00:51:52.387Z,4.37
2019-05-07T00:54:22.874Z,4.55
2019-05-07T00:56:52.148Z,4.33
2019-05-07T00:59:22.408Z,4.25
2019-05-07T01:01:52.799Z,4.55
2019-05-07T01:04:22.915Z,4.70
2019-05-07T01:06:53.225Z,4.53
2019-05-07T01:09:22.878Z,3.87
2019-05-07T01:11:52.400Z,3.95
2019-05-07T01:14:22.659Z,4.42
2019-05-07T01:16:52.707Z,4.17
2019-05-07T01:19:21.924Z,4.33
2019-05-07T01:21:52.351Z,5.37
2019-05-07T01:24:23.331Z,3.70
2019-05-07T01:26:52.946Z,4.00
2019-05-07T01:29:22.564Z,4.17
2019-05-07T01:31:55.339Z,4.12
2019-05-07T01:34:25.215Z,4.00
2019-05-07T01:36:53.552Z,4.05
2019-05-07T01:39:23.149Z,3.85
2019-05-07T01:41:52.478Z,3.80
2019-05-07T01:44:22.158Z,3.65
2019-05-07T01:46:52.749Z,4.37
2019-05-07T01:49:20.448Z,3.53
2019-05-07T01:51:48.947Z,3.70
2019-05-07T01:54:17.210Z,4.22
2019-05-07T01:56:45.428Z,4.53
2019-05-07T01:59:13.661Z,4.05
2019-05-07T02:01:42.884Z,3.98
2019-05-07T02:04:13.000Z,4.05
2019-05-07T02:06:58.835Z,4.47
2019-05-07T02:09:28.725Z,4.60
2019-05-07T02:12:02.462Z,4.20
2019-05-07T02:16:58.391Z,4.08
2019-05-07T02:19:26.933Z,4.40
2019-05-07T02:21:55.141Z,4.53
2019-05-07T02:24:23.399Z,4.22
2019-05-07T02:26:52.130Z,4.08
2019-05-07T02:29:20.347Z,4.37
2019-05-07T02:31:48.569Z,3.90
2019-05-07T02:34:16.802Z,4.70
2019-05-07T02:36:45.368Z,4.12
2019-05-07T02:39:17.614Z,4.17
2019-05-07T02:41:45.844Z,4.72
2019-05-07T02:44:14.434Z,4.33
2019-05-07T02:46:47.199Z,4.78
2019-05-07T02:49:23.453Z,4.50
2019-05-07T02:52:04.152Z,4.60
2019-05-07T02:54:53.160Z,4.30
2019-05-07T02:57:20.039Z,4.95
2019-05-07T02:59:48.250Z,4.30
2019-05-07T03:02:16.882Z,5.53
2019-05-07T03:04:45.103Z,4.37
2019-05-07T03:07:13.445Z,4.95
2019-05-07T03:09:43.189Z,4.42
2019-05-07T03:12:13.181Z,4.53
2019-05-07T03:14:43.863Z,4.62
2019-05-07T03:17:13.392Z,4.45
2019-05-07T03:19:43.269Z,4.15
2019-05-07T03:22:13.996Z,4.40
2019-05-07T03:24:43.705Z,4.55
2019-05-07T03:27:14.176Z,5.10
2019-05-07T03:29:44.494Z,4.35
2019-05-07T03:32:36.651Z,5.50
2019-05-07T03:35:16.433Z,5.10
2019-05-07T03:37:45.238Z,4.83
2019-05-07T03:40:14.286Z,3.98
2019-05-07T03:42:43.964Z,4.67
2019-05-07T03:45:17.533Z,4.65
2019-05-07T03:47:47.451Z,4.53
2019-05-07T03:50:16.569Z,5.02
2019-05-07T03:52:44.795Z,5.15
2019-05-07T03:55:14.522Z,5.92
2019-05-07T03:57:43.942Z,5.25
2019-05-07T04:00:13.232Z,5.42
2019-05-07T04:02:43.716Z,5.62
2019-05-07T04:05:14.097Z,5.15
2019-05-07T04:07:42.985Z,5.92
2019-05-07T04:10:14.658Z,6.05
2019-05-07T04:12:44.181Z,5.40
2019-05-07T04:15:14.648Z,5.17
2019-05-07T04:17:43.348Z,4.97
2019-05-07T04:20:13.416Z,5.33
2019-05-07T04:22:43.058Z,6.30
2019-05-07T04:25:28.520Z,5.70
2019-05-07T04:28:10.702Z,5.10
2019-05-07T04:30:39.285Z,5.10
2019-05-07T04:33:09.164Z,5.35
2019-05-07T04:35:43.483Z,4.97
2019-05-07T04:38:13.737Z,4.50
2019-05-07T04:40:43.445Z,5.70
2019-05-07T04:43:13.668Z,5.30
2019-05-07T04:45:43.267Z,5.40
2019-05-07T04:48:14.194Z,5.25
2019-05-07T04:50:47.534Z,5.75
2019-05-07T04:53:13.968Z,5.83
2019-05-07T04:55:43.049Z,4.62
2019-05-07T04:58:13.993Z,4.75
2019-05-07T05:00:43.151Z,4.58
2019-05-07T05:03:19.532Z,4.60
2019-05-07T05:05:47.752Z,4.58
2019-05-07T05:08:16.927Z,4.64
2019-05-07T05:10:45.167Z,4.80
2019-05-07T05:13:13.374Z,4.45
2019-05-07T05:15:43.107Z,4.55
2019-05-07T05:18:12.747Z,4.33
2019-05-07T05:20:46.046Z,4.58
2019-05-07T05:23:16.213Z,4.87
2019-05-07T05:25:45.061Z,4.30
2019-05-07T05:28:13.857Z,4.10
2019-05-07T05:30:53.969Z,5.40
2019-05-07T05:33:23.485Z,5.25
2019-05-07T05:35:52.563Z,4.90
2019-05-07T05:38:22.166Z,4.80
2019-05-07T05:40:52.079Z,4.35
2019-05-07T05:43:22.863Z,3.65
2019-05-07T05:45:53.080Z,4.03
2019-05-07T05:48:22.416Z,5.08
2019-05-07T05:51:02.683Z,3.98
2019-05-07T05:53:32.857Z,3.60
2019-05-07T05:56:02.773Z,3.40
2019-05-07T05:58:32.951Z,4.12
2019-05-07T06:01:08.664Z,4.30
2019-05-07T06:03:43.021Z,3.52
2019-05-07T06:06:12.999Z,3.60
2019-05-07T06:08:43.498Z,3.62
2019-05-07T06:11:13.382Z,3.35
2019-05-07T06:13:45.965Z,3.95
2019-05-07T06:16:18.579Z,3.80
2019-05-07T06:18:57.251Z,4.07
2019-05-07T06:21:27.122Z,3.25
2019-05-07T06:24:02.806Z,3.92
2019-05-07T06:26:31.904Z,3.30
2019-05-07T06:29:02.310Z,3.65
2019-05-07T06:31:32.534Z,3.12
2019-05-07T06:34:01.834Z,3.00
2019-05-07T06:36:32.835Z,3.22
2019-05-07T06:39:19.013Z,2.92
2019-05-07T06:42:05.104Z,3.30
2019-05-07T06:44:33.595Z,3.42
2019-05-07T06:47:02.448Z,3.00
2019-05-07T06:49:32.424Z,3.27
2019-05-07T06:52:02.838Z,3.22
2019-05-07T06:54:32.127Z,3.10
2019-05-07T06:57:01.970Z,2.80
2019-05-07T06:59:34.972Z,2.80
2019-05-07T07:02:22.535Z,3.33
2019-05-07T07:04:58.249Z,2.67
2019-05-07T07:07:37.308Z,3.12
2019-05-07T07:10:11.985Z,4.47
2019-05-07T07:12:44.626Z,2.90
2019-05-07T07:15:12.858Z,3.00
2019-05-07T07:17:41.878Z,3.20
2019-05-07T07:20:12.542Z,3.00
2019-05-07T07:22:42.450Z,2.60
2019-05-07T07:25:11.881Z,3.00
2019-05-07T07:27:42.820Z,2.90
2019-05-07T07:30:21.830Z,2.77
2019-05-07T07:32:52.001Z,2.80
2019-05-07T07:35:22.443Z,2.30
2019-05-07T07:37:50.445Z,2.58
2019-05-07T07:40:22.429Z,2.65
2019-05-07T07:42:52.025Z,2.90
2019-05-07T07:45:22.815Z,2.62
2019-05-07T07:47:53.008Z,2.62
2019-05-07T07:50:22.426Z,2.25
2019-05-07T07:52:52.984Z,2.45
2019-05-07T07:55:22.896Z,2.47
2019-05-07T07:57:56.512Z,2.50
2019-05-07T08:00:35.828Z,3.05
2019-05-07T08:03:05.709Z,2.50
2019-05-07T08:05:33.921Z,2.40
2019-05-07T08:08:02.398Z,1.92
2019-05-07T08:10:32.576Z,1.95
2019-05-07T08:13:01.921Z,1.77
2019-05-07T08:15:33.085Z,2.08
2019-05-07T08:18:02.812Z,2.15
2019-05-07T08:20:32.626Z,1.70
2019-05-07T08:23:02.952Z,1.65
2019-05-07T08:25:52.287Z,1.60
2019-05-07T08:28:22.852Z,1.87
2019-05-07T08:30:52.713Z,2.20
2019-05-07T08:33:22.572Z,1.95
2019-05-07T08:35:58.366Z,1.22
2019-05-07T08:38:29.846Z,1.67
2019-05-07T08:40:56.538Z,1.75
2019-05-07T08:43:24.747Z,1.27
2019-05-07T08:46:12.091Z,1.50
2019-05-07T08:48:42.452Z,1.87
2019-05-07T08:51:11.932Z,1.52
2019-05-07T08:53:42.202Z,1.92
2019-05-07T08:56:12.314Z,1.92
2019-05-07T08:58:42.022Z,1.92
2019-05-07T09:01:11.883Z,1.50
2019-05-07T09:03:43.040Z,1.72
2019-05-07T09:06:12.955Z,1.50
2019-05-07T09:08:43.502Z,1.60
2019-05-07T09:11:13.303Z,1.42
2019-05-07T09:13:42.087Z,1.80
2019-05-07T09:16:12.805Z,1.50
2019-05-07T09:18:42.200Z,1.75
2019-05-07T09:21:12.325Z,1.90
2019-05-07T09:23:42.215Z,2.02
2019-05-07T09:26:13.054Z,2.00
2019-05-07T09:28:52.411Z,1.90
2019-05-07T09:31:28.013Z,1.62
2019-05-07T09:33:57.884Z,1.42
2019-05-07T09:36:27.758Z,1.52
2019-05-07T09:38:58.989Z,1.80
2019-05-07T09:41:28.337Z,1.60
2019-05-07T09:43:57.305Z,1.80
2019-05-07T09:46:25.682Z,2.10
2019-05-07T09:48:53.957Z,1.50
2019-05-07T09:51:22.687Z,1.67
2019-05-07T09:53:51.966Z,1.92
2019-05-07T09:56:22.469Z,2.37
2019-05-07T09:58:52.926Z,1.62
2019-05-07T10:01:23.572Z,1.67
2019-05-07T10:03:51.906Z,1.62
2019-05-07T10:06:20.411Z,1.35
2019-05-07T10:08:48.625Z,1.50
2019-05-07T10:11:18.499Z,1.82
2019-05-07T10:14:06.756Z,1.55
2019-05-07T10:16:42.379Z,1.55
2019-05-07T10:19:10.614Z,1.30
2019-05-07T10:21:38.962Z,1.40
2019-05-07T10:24:07.159Z,1.27
2019-05-07T10:26:35.382Z,1.40
2019-05-07T10:29:03.602Z,1.50
2019-05-07T10:31:32.105Z,1.62
2019-05-07T10:34:00.355Z,1.80
2019-05-07T10:36:28.567Z,1.70
2019-05-07T10:38:56.833Z,2.12
2019-05-07T10:41:25.189Z,1.53
2019-05-07T10:43:53.444Z,1.30
2019-05-07T10:46:42.317Z,1.40
2019-05-07T10:49:12.407Z,1.60
2019-05-07T10:51:42.559Z,1.90
2019-05-07T10:54:12.588Z,1.57
2019-05-07T10:56:41.883Z,1.50
2019-05-07T10:59:12.175Z,1.47
2019-05-07T11:01:45.421Z,1.50
2019-05-07T11:04:13.640Z,1.72
2019-05-07T11:06:41.924Z,1.80
2019-05-07T11:09:10.181Z,2.00
2019-05-07T11:11:38.366Z,2.10
2019-05-07T11:14:06.694Z,1.65
2019-05-07T11:16:36.843Z,1.52
2019-05-07T11:19:05.443Z,1.87
2019-05-07T11:21:33.746Z,1.27
2019-05-07T11:24:03.291Z,1.10
2019-05-07T11:26:35.080Z,1.37
2019-05-07T11:29:03.489Z,1.30
2019-05-07T11:31:33.102Z,1.12
2019-05-07T11:34:02.761Z,1.50
2019-05-07T11:36:32.077Z,1.77
2019-05-07T11:39:01.991Z,1.87
2019-05-07T11:41:32.123Z,1.87
2019-05-07T11:44:02.057Z,1.60
2019-05-07T11:46:32.810Z,1.55
2019-05-07T11:49:05.770Z,2.02
2019-05-07T11:51:38.350Z,1.70
2019-05-07T11:54:13.573Z,2.17
2019-05-07T11:56:42.397Z,2.33
2019-05-07T11:59:13.106Z,1.60
2019-05-07T12:01:47.223Z,1.77
2019-05-07T12:04:12.871Z,1.70
2019-05-07T12:06:41.380Z,1.50
2019-05-07T12:09:09.591Z,1.50
2019-05-07T12:11:38.385Z,1.65
2019-05-07T12:14:06.941Z,1.75
2019-05-07T12:16:35.552Z,1.52
2019-05-07T12:19:03.765Z,1.50
2019-05-07T12:21:32.353Z,1.82
2019-05-07T12:24:02.171Z,1.50
2019-05-07T12:26:31.951Z,1.70
2019-05-07T12:29:00.477Z,1.10
2019-05-07T12:31:46.624Z,1.30
2019-05-07T12:34:16.485Z,1.65
2019-05-07T12:36:44.706Z,1.40
2019-05-07T12:39:13.371Z,1.62
2019-05-07T12:41:43.076Z,2.02
2019-05-07T12:44:12.964Z,1.52
2019-05-07T12:46:42.294Z,1.47
2019-05-07T12:49:12.025Z,1.62
2019-05-07T12:51:42.686Z,1.22
2019-05-07T12:54:25.333Z,1.32
2019-05-07T12:56:53.542Z,1.40
2019-05-07T12:59:22.014Z,1.10
2019-05-07T13:01:52.237Z,1.40
2019-05-07T13:04:32.486Z,1.37
2019-05-07T13:07:02.621Z,1.52
2019-05-07T13:09:32.489Z,2.02
2019-05-07T13:12:03.014Z,1.50
2019-05-07T13:14:31.465Z,1.33
2019-05-07T13:17:00.098Z,1.30
2019-05-07T13:19:29.169Z,1.47
2019-05-07T13:21:58.225Z,1.47
2019-05-07T13:24:27.318Z,1.50
2019-05-07T13:26:55.538Z,1.67
2019-05-07T13:29:23.764Z,1.70
2019-05-07T13:31:54.310Z,2.40
2019-05-07T13:34:22.870Z,1.70
2019-05-07T13:36:54.676Z,1.77
2019-05-07T13:39:27.852Z,1.60
2019-05-07T13:42:07.037Z,1.80
2019-05-07T13:44:37.851Z,1.70
2019-05-07T13:47:23.906Z,1.67
2019-05-07T13:49:53.810Z,1.50
2019-05-07T13:52:23.857Z,1.50
2019-05-07T13:54:53.060Z,2.00
2019-05-07T13:57:22.660Z,1.60
2019-05-07T13:59:53.067Z,1.60
2019-05-07T14:02:23.725Z,1.70
2019-05-07T14:04:52.651Z,1.80
2019-05-07T14:07:21.784Z,1.60
2019-05-07T14:09:50.124Z,1.55
2019-05-07T14:12:18.702Z,1.72
2019-05-07T14:14:46.917Z,1.32
2019-05-07T14:17:15.272Z,1.40
2019-05-07T14:19:43.479Z,1.37
2019-05-07T14:22:16.280Z,1.50
2019-05-07T14:24:42.224Z,1.72
2019-05-07T14:27:10.560Z,1.52
2019-05-07T14:29:38.763Z,1.82
2019-05-07T14:32:08.608Z,1.70
2019-05-07T14:34:38.503Z,1.55
2019-05-07T14:37:23.303Z,1.80
2019-05-07T14:39:51.921Z,1.75
2019-05-07T14:42:22.136Z,1.85
2019-05-07T14:44:52.633Z,1.42
2019-05-07T14:47:22.337Z,1.85
2019-05-07T14:49:52.964Z,1.60
2019-05-07T14:52:30.119Z,1.72
2019-05-07T14:54:51.044Z,1.70
2019-05-07T14:57:19.253Z,1.98
2019-05-07T14:59:47.799Z,1.92
2019-05-07T15:02:17.011Z,1.96
2019-05-07T15:04:45.226Z,1.42
2019-05-07T15:07:13.460Z,2.30
2019-05-07T15:09:42.625Z,1.92
2019-05-07T15:12:12.445Z,1.82
2019-05-07T15:14:42.130Z,2.22
2019-05-07T15:17:12.900Z,2.08
2019-05-07T15:19:42.753Z,1.82
2019-05-07T15:22:13.026Z,1.60
2019-05-07T15:24:41.781Z,1.67
2019-05-07T15:27:12.184Z,1.70
2019-05-07T15:29:42.100Z,1.90
2019-05-07T15:32:12.602Z,2.20
2019-05-07T15:34:42.111Z,1.80
2019-05-07T15:37:12.300Z,1.80
2019-05-07T15:39:42.153Z,2.10
2019-05-07T15:42:10.515Z,1.85
2019-05-07T15:44:38.721Z,2.20
2019-05-07T15:47:08.563Z,1.60
2019-05-07T15:49:36.803Z,2.37
2019-05-07T15:52:06.649Z,2.30
2019-05-07T15:54:34.859Z,2.50
2019-05-07T15:57:04.728Z,2.30
2019-05-07T15:59:32.928Z,2.17
2019-05-07T16:02:06.031Z,2.20
2019-05-07T16:04:35.003Z,1.95
2019-05-07T16:07:05.228Z,2.47
2019-05-07T16:09:45.439Z,2.33
2019-05-07T16:12:15.303Z,2.00
2019-05-07T16:14:43.514Z,2.62
2019-05-07T16:17:13.387Z,2.65
2019-05-07T16:19:42.561Z,2.80
2019-05-07T16:22:12.804Z,3.12
2019-05-07T16:24:41.164Z,2.20
2019-05-07T16:27:09.400Z,2.67
2019-05-07T16:29:37.723Z,2.77
2019-05-07T16:32:06.051Z,2.77
2019-05-07T16:34:34.310Z,2.50
2019-05-07T16:37:06.803Z,2.95
2019-05-07T16:39:32.804Z,3.08
2019-05-07T16:42:01.866Z,2.47
2019-05-07T16:44:30.204Z,2.30
2019-05-07T16:46:58.406Z,2.50
2019-05-07T16:49:26.647Z,2.10
2019-05-07T16:51:54.859Z,2.37
2019-05-07T16:54:23.404Z,2.25
2019-05-07T16:57:03.122Z,2.70
2019-05-07T16:59:32.330Z,2.60
2019-05-07T17:02:02.745Z,2.30
2019-05-07T17:04:31.954Z,2.35
2019-05-07T17:07:02.547Z,2.00
2019-05-07T17:09:32.267Z,2.30
2019-05-07T17:12:03.050Z,2.60
2019-05-07T17:14:31.254Z,2.27
2019-05-07T17:16:59.791Z,2.47
2019-05-07T17:19:28.013Z,2.02
2019-05-07T17:21:56.595Z,2.00
2019-05-07T17:24:24.805Z,2.80
2019-05-07T17:26:53.046Z,2.10
2019-05-07T17:29:22.698Z,2.02
2019-05-07T17:31:52.720Z,1.87
2019-05-07T17:34:22.161Z,2.27
2019-05-07T17:36:52.441Z,3.37
2019-05-07T17:39:22.670Z,2.47
2019-05-07T17:41:51.846Z,2.25
2019-05-07T17:44:21.010Z,2.65
2019-05-07T17:46:51.841Z,2.42
2019-05-07T17:49:21.895Z,2.62
2019-05-07T17:51:52.457Z,2.37
2019-05-07T17:54:22.330Z,1.85
2019-05-07T17:56:52.560Z,1.98
2019-05-07T17:59:20.573Z,2.05
2019-05-07T18:02:01.788Z,2.20
2019-05-07T18:04:32.453Z,2.17
2019-05-07T18:07:01.125Z,1.90
2019-05-07T18:09:31.882Z,1.57
2019-05-07T18:12:00.260Z,1.90
2019-05-07T18:14:28.564Z,1.95
2019-05-07T18:16:58.786Z,2.00
2019-05-07T18:19:28.653Z,1.98
2019-05-07T18:21:56.896Z,1.95
2019-05-07T18:24:25.658Z,2.02
2019-05-07T18:26:54.006Z,2.10
2019-05-07T18:29:22.607Z,2.30
2019-05-07T18:31:55.318Z,1.90
2019-05-07T18:34:23.540Z,4.37
2019-05-07T18:36:53.045Z,3.05
2019-05-07T18:39:21.346Z,2.40
2019-05-07T18:41:52.135Z,2.62
2019-05-07T18:44:22.145Z,2.65
2019-05-07T18:46:52.695Z,2.40
2019-05-07T18:49:20.846Z,2.52
2019-05-07T18:51:49.122Z,2.60
2019-05-07T18:54:27.950Z,2.65
2019-05-07T18:56:47.301Z,3.12
2019-05-07T18:59:16.663Z,2.10
2019-05-07T19:01:45.152Z,3.10
2019-05-07T19:04:13.356Z,2.52
2019-05-07T19:06:42.421Z,2.33
2019-05-07T19:09:11.306Z,2.00
2019-05-07T19:11:39.895Z,2.52
2019-05-07T19:14:08.121Z,2.12
2019-05-07T19:16:36.658Z,2.00
2019-05-07T19:19:05.837Z,2.02
2019-05-07T19:21:34.545Z,2.45
2019-05-07T19:24:03.024Z,2.72
2019-05-07T19:26:32.091Z,13.77
2019-05-07T19:29:02.571Z,4.15
2019-05-07T19:31:32.516Z,3.10
2019-05-07T19:34:02.932Z,2.90
2019-05-07T19:36:32.178Z,2.83
2019-05-07T19:39:01.958Z,3.02
2019-05-07T19:41:32.126Z,2.33
2019-05-07T19:44:02.039Z,2.50
2019-05-07T19:46:30.712Z,2.33
2019-05-07T19:48:59.184Z,2.45
2019-05-07T19:51:27.472Z,2.45
2019-05-07T19:53:56.293Z,2.47
2019-05-07T19:56:25.562Z,2.15
2019-05-07T19:58:53.777Z,2.40
2019-05-07T20:01:23.709Z,2.30
2019-05-07T20:03:52.870Z,2.33
2019-05-07T20:06:23.377Z,2.10
2019-05-07T20:08:52.907Z,2.70
2019-05-07T20:11:32.464Z,2.30
2019-05-07T20:14:02.018Z,2.60
2019-05-07T20:16:32.403Z,2.42
2019-05-07T20:19:00.397Z,2.52
2019-05-07T20:21:28.900Z,3.22
2019-05-07T20:23:57.110Z,3.50
2019-05-07T20:26:25.339Z,3.40
2019-05-07T20:28:53.548Z,2.77
2019-05-07T20:31:22.561Z,2.87
2019-05-07T20:33:53.166Z,3.00
2019-05-07T20:36:21.099Z,2.80
2019-05-07T20:38:51.912Z,2.80
2019-05-07T20:41:19.915Z,2.62
2019-05-07T20:43:48.294Z,2.95
2019-05-07T20:46:16.607Z,2.80
2019-05-07T20:48:44.884Z,2.90
2019-05-07T20:51:13.100Z,2.92
2019-05-07T20:54:00.273Z,2.58
2019-05-07T20:56:38.990Z,2.47
2019-05-07T20:59:07.203Z,2.60
2019-05-07T21:01:35.739Z,3.05
2019-05-07T21:04:03.968Z,2.50
2019-05-07T21:06:32.545Z,2.77
2019-05-07T21:09:00.764Z,2.80
2019-05-07T21:11:29.098Z,2.90
2019-05-07T21:13:57.645Z,3.05
2019-05-07T21:16:25.854Z,2.90
2019-05-07T21:18:54.072Z,2.90
2019-05-07T21:21:22.544Z,2.72
2019-05-07T21:23:52.693Z,2.60
2019-05-07T21:26:22.543Z,2.50
2019-05-07T21:28:52.739Z,3.35
2019-05-07T21:31:22.682Z,2.80
2019-05-07T21:33:52.379Z,2.58
2019-05-07T21:36:22.791Z,2.90
2019-05-07T21:38:51.981Z,3.02
2019-05-07T21:41:22.518Z,2.87
2019-05-07T21:43:50.178Z,2.65
2019-05-07T21:46:18.388Z,2.90
2019-05-07T21:48:46.605Z,3.05
2019-05-07T21:51:14.831Z,3.27
2019-05-07T21:53:47.123Z,3.20
2019-05-07T21:56:22.944Z,3.08
2019-05-07T21:58:54.135Z,3.00
2019-05-07T22:01:24.039Z,3.42
2019-05-07T22:03:53.912Z,3.30
2019-05-07T22:06:22.654Z,2.90
2019-05-07T22:08:52.534Z,3.62
2019-05-07T22:11:22.950Z,3.15
2019-05-07T22:13:52.781Z,3.27
2019-05-07T22:16:22.147Z,3.30
2019-05-07T22:18:52.213Z,3.27
2019-05-07T22:21:20.503Z,3.27
2019-05-07T22:23:48.728Z,3.45
2019-05-07T22:26:22.885Z,3.15
2019-05-07T22:28:46.865Z,3.30
2019-05-07T22:31:25.403Z,3.65
2019-05-07T22:34:12.813Z,3.20
2019-05-07T22:36:43.149Z,3.30
2019-05-07T22:39:12.607Z,3.50
2019-05-07T22:41:42.460Z,3.10
2019-05-07T22:44:12.003Z,3.08
2019-05-07T22:46:42.144Z,3.50
2019-05-07T22:49:12.265Z,3.60
2019-05-07T22:51:40.470Z,3.30
2019-05-07T22:54:08.695Z,3.10
2019-05-07T22:56:54.623Z,3.25
2019-05-07T22:59:23.227Z,3.23
2019-05-07T23:01:55.079Z,3.55
2019-05-07T23:04:22.938Z,3.63
2019-05-07T23:06:52.846Z,3.67
2019-05-07T23:09:22.363Z,3.90
2019-05-07T23:11:52.550Z,4.37
2019-05-07T23:14:22.631Z,4.03
2019-05-07T23:16:52.559Z,3.35
2019-05-07T23:19:22.082Z,3.62
2019-05-07T23:21:52.207Z,3.62
2019-05-07T23:24:24.488Z,3.65
2019-05-07T23:26:53.361Z,3.77
2019-05-07T23:29:22.449Z,3.80
2019-05-07T23:31:52.849Z,3.92
2019-05-07T23:34:21.967Z,3.50
2019-05-07T23:36:53.075Z,3.72
2019-05-07T23:39:22.207Z,3.65
2019-05-07T23:42:02.299Z,3.77
2019-05-07T23:44:30.667Z,3.65
2019-05-07T23:46:58.864Z,3.90
2019-05-07T23:49:27.375Z,3.90
2019-05-07T23:51:55.954Z,3.80
2019-05-07T23:54:24.154Z,4.53
2019-05-07T23:57:04.986Z,3.90
2019-05-07T23:59:22.468Z,4.13
